Time;durP1;ratioP1;P1;durP2;ratioP2;P2;SDS_P1;SDS_P2;PMS_P1;PMS_P2;Temp;Humidity;BMP_temperature;BMP_pressure;BME280_temperature;BME280_humidity;BME280_pressure;Samples;Min_cycle;Max_cycle;Signal;HPM_P1;HPM_P2
2022/02/09 00:02:28;;;;;;;29.43;20.30;;;9.20;99.90;;;;;;5068428;28;20251;-74
2022/02/09 00:05:05;;;;;;;30.30;19.10;;;9.20;99.90;;;;;;5052957;28;20206;-73
2022/02/09 00:07:38;;;;;;;27.90;19.97;;;9.10;99.90;;;;;;5068492;28;20308;-73
2022/02/09 00:10:06;;;;;;;30.47;19.60;;;9.10;99.90;;;;;;5070146;28;20845;-79
2022/02/09 00:12:39;;;;;;;27.90;18.97;;;9.10;99.90;;;;;;5070367;28;20202;-79
2022/02/09 00:15:21;;;;;;;27.17;18.83;;;9.20;99.90;;;;;;5070364;28;20688;-78
2022/02/09 00:17:56;;;;;;;27.93;19.10;;;9.10;99.90;;;;;;5053737;28;20260;-79
2022/02/09 00:23:46;;;;;;;25.43;16.83;;;9.20;99.90;;;;;;5069978;28;20198;-79
2022/02/09 00:29:32;;;;;;;26.00;16.20;;;9.20;99.90;;;;;;5071168;28;20202;-78
2022/02/09 00:32:25;;;;;;;21.20;14.93;;;9.20;99.90;;;;;;5069661;28;20604;-78
2022/02/09 00:38:12;;;;;;;22.23;14.10;;;9.20;99.90;;;;;;5038113;28;20190;-80
2022/02/09 00:41:18;;;;;;;20.10;13.60;;;9.20;99.90;;;;;;5069624;28;20558;-79
2022/02/09 00:44:10;;;;;;;19.93;13.10;;;9.20;99.90;;;;;;5069762;28;20190;-79
2022/02/09 01:11:20;;;;;;;19.00;12.27;;;9.30;99.90;;;;;;5070350;28;20552;-79
2022/02/09 01:12:04;;;;;;;18.57;11.07;;;9.30;99.90;;;;;;5070029;28;20204;-78
2022/02/09 01:39:44;;;;;;;17.70;11.17;;;9.40;1.00;;;;;;5072996;28;20654;-78
2022/02/09 01:55:55;;;;;;;17.30;10.03;;;9.40;1.00;;;;;;5073311;28;20745;-79
2022/02/09 01:58:23;;;;;;;18.43;9.67;;;9.30;1.00;;;;;;5071342;28;20203;-79
2022/02/09 02:00:51;;;;;;;15.47;8.80;;;9.30;1.00;;;;;;5073557;28;20691;-80
2022/02/09 02:03:18;;;;;;;18.90;9.80;;;9.40;1.00;;;;;;5072191;28;20206;-78
2022/02/09 02:05:45;;;;;;;17.50;10.10;;;9.30;1.00;;;;;;5073092;28;20638;-78
2022/02/09 02:08:14;;;;;;;15.17;9.50;;;9.30;1.00;;;;;;5072580;28;20194;-79
2022/02/09 02:10:52;;;;;;;16.10;9.30;;;9.30;1.00;;;;;;5073220;28;20260;-79
2022/02/09 02:16:23;;;;;;;13.53;8.27;;;9.30;1.00;;;;;;5072930;28;20305;-79
2022/02/09 02:18:54;;;;;;;17.10;8.20;;;9.30;1.00;;;;;;5073288;28;20234;-79
2022/02/09 02:21:36;;;;;;;11.73;7.73;;;9.30;1.00;;;;;;5072840;28;20246;-79
2022/02/09 02:27:28;;;;;;;13.00;7.63;;;9.30;1.00;;;;;;5029267;28;20589;-79
2022/02/09 02:30:39;;;;;;;13.67;7.70;;;9.30;99.90;;;;;;5029704;28;20208;-79
2022/02/09 02:33:22;;;;;;;14.87;7.10;;;9.30;99.90;;;;;;5066312;28;20198;-80
2022/02/09 02:36:07;;;;;;;14.50;7.63;;;9.30;99.90;;;;;;5071586;28;20262;-79
2022/02/09 02:39:11;;;;;;;12.53;7.53;;;9.30;99.90;;;;;;5070606;28;20273;-80
2022/02/09 03:12:38;;;;;;;13.77;7.37;;;9.40;1.00;;;;;;5010718;28;20188;-79
2022/02/09 03:15:23;;;;;;;11.83;7.07;;;9.30;1.00;;;;;;5061644;28;20749;-79
2022/02/09 03:18:03;;;;;;;11.13;7.40;;;9.30;1.00;;;;;;5073029;28;20730;-79
2022/02/09 03:20:37;;;;;;;11.00;7.70;;;9.30;99.90;;;;;;5072189;28;20205;-79
2022/02/09 03:23:16;;;;;;;13.77;7.90;;;9.40;1.00;;;;;;5071094;28;20226;-78
2022/02/09 03:25:55;;;;;;;10.67;7.43;;;9.30;1.00;;;;;;5052898;28;20217;-78
2022/02/09 03:31:27;;;;;;;13.47;7.87;;;9.30;1.00;;;;;;5050906;28;20190;-79
2022/02/09 03:42:32;;;;;;;12.43;7.67;;;9.10;99.90;;;;;;5072520;28;20201;-70
2022/02/09 03:48:03;;;;;;;9.97;7.13;;;9.10;18.10;;;;;;5071622;28;20209;-69
2022/02/09 03:50:44;;;;;;;13.73;8.27;;;9.20;1.00;;;;;;5069217;28;20199;-69
2022/02/09 03:53:21;;;;;;;13.07;7.27;;;9.20;1.00;;;;;;5061929;28;20267;-69
2022/02/09 03:56:12;;;;;;;10.30;6.97;;;9.20;1.00;;;;;;5061795;28;20264;-69
2022/02/09 03:58:39;;;;;;;10.80;6.87;;;9.20;1.00;;;;;;5051932;28;20210;-69
2022/02/09 04:01:07;;;;;;;8.50;6.43;;;9.10;1.00;;;;;;5051603;28;20207;-69
2022/02/09 04:03:34;;;;;;;9.93;6.53;;;9.20;1.00;;;;;;5055750;28;20213;-69
2022/02/09 04:06:02;;;;;;;8.87;6.47;;;9.20;1.00;;;;;;5071068;28;20244;-69
2022/02/09 04:08:32;;;;;;;9.17;6.13;;;9.10;1.00;;;;;;5070423;28;20577;-69
2022/02/09 04:11:08;;;;;;;10.67;6.50;;;9.20;1.00;;;;;;5071358;28;20293;-69
2022/02/09 04:13:45;;;;;;;10.67;7.17;;;9.20;1.00;;;;;;5071845;28;20656;-69
2022/02/09 04:16:22;;;;;;;7.53;5.70;;;9.10;1.00;;;;;;5068625;28;20222;-69
2022/02/09 04:19:01;;;;;;;9.37;7.07;;;9.10;1.00;;;;;;5069305;28;20213;-69
2022/02/09 04:38:04;;;;;;;10.30;6.60;;;9.10;99.90;;;;;;5069459;28;20228;-69
2022/02/09 04:43:27;;;;;;;9.63;6.10;;;9.10;99.90;;;;;;5068708;28;20293;-69
2022/02/09 04:49:03;;;;;;;7.20;4.60;;;9.10;1.00;;;;;;5069990;28;20240;-69
2022/02/09 04:51:36;;;;;;;8.90;5.13;;;9.10;1.00;;;;;;5069338;28;20207;-70
2022/02/09 04:54:26;;;;;;;5.43;4.50;;;9.10;1.00;;;;;;5069045;28;20198;-69
2022/02/09 04:56:58;;;;;;;9.17;4.73;;;9.20;99.90;;;;;;5049020;28;20296;-69
2022/02/09 04:59:32;;;;;;;8.53;4.40;;;9.30;1.00;;;;;;5063970;28;20210;-69
2022/02/09 05:19:11;;;;;;;5.23;3.70;;;9.30;99.90;;;;;;5075712;28;20275;-69
2022/02/09 05:24:41;;;;;;;4.23;3.33;;;9.20;1.00;;;;;;5087869;28;20299;-70
2022/02/09 05:27:18;;;;;;;4.53;3.53;;;9.30;1.00;;;;;;5127384;28;20291;-69
2022/02/09 05:29:45;;;;;;;9.10;6.13;;;9.20;1.00;;;;;;5127496;28;20203;-69
2022/02/09 05:32:12;;;;;;;7.40;4.10;;;9.20;1.00;;;;;;5125902;28;20200;-70
2022/02/09 05:34:39;;;;;;;5.33;4.20;;;9.30;1.00;;;;;;5126578;28;20262;-70
2022/02/09 05:37:08;;;;;;;6.10;3.77;;;9.30;1.00;;;;;;5126588;28;20196;-70
2022/02/09 05:39:34;;;;;;;6.53;4.90;;;9.20;1.00;;;;;;5126937;28;20253;-69
2022/02/09 05:42:07;;;;;;;6.80;5.20;;;9.20;99.90;;;;;;5128547;28;20197;-70
2022/02/09 05:44:34;;;;;;;7.13;5.40;;;9.20;99.90;;;;;;5127102;28;20221;-69
2022/02/09 05:50:07;;;;;;;5.87;4.63;;;9.20;1.00;;;;;;5127074;28;20192;-70
2022/02/09 05:52:55;;;;;;;8.23;5.27;;;9.10;1.00;;;;;;5126474;28;20748;-69
2022/02/09 05:55:37;;;;;;;6.33;4.97;;;9.20;1.00;;;;;;5126866;28;20200;-70
2022/02/09 05:58:09;;;;;;;7.40;5.50;;;9.20;1.00;;;;;;5126811;28;20567;-70
2022/02/09 06:00:40;;;;;;;7.80;4.77;;;9.20;1.00;;;;;;5127381;28;20704;-69
2022/02/09 06:03:07;;;;;;;6.70;4.43;;;9.20;1.00;;;;;;5126258;28;20216;-70
2022/02/09 06:05:34;;;;;;;6.50;4.00;;;9.10;99.90;;;;;;5141837;27;20263;-70
2022/02/09 06:08:02;;;;;;;4.83;4.17;;;9.20;1.00;;;;;;5148400;27;20618;-70
2022/02/09 06:10:32;;;;;;;5.23;3.93;;;9.10;27.20;;;;;;5147267;27;20257;-70
2022/02/09 06:13:14;;;;;;;4.60;3.97;;;9.20;99.90;;;;;;5148455;27;20635;-70
2022/02/09 06:21:20;;;;;;;8.57;5.80;;;9.10;1.00;;;;;;5132822;27;20288;-69
2022/02/09 06:23:49;;;;;;;7.97;5.80;;;9.20;1.00;;;;;;5132809;27;20259;-69
2022/02/09 06:26:16;;;;;;;8.27;6.20;;;9.10;35.60;;;;;;5134031;27;20273;-69
2022/02/09 06:28:44;;;;;;;8.27;6.00;;;9.10;93.70;;;;;;5134140;27;20204;-70
2022/02/09 06:31:11;;;;;;;7.13;5.47;;;9.10;99.90;;;;;;5132336;27;20200;-69
2022/02/09 06:33:38;;;;;;;6.87;5.63;;;9.10;94.50;;;;;;5132263;27;20230;-70
2022/02/09 06:36:09;;;;;;;8.40;5.67;;;9.10;1.00;;;;;;5114649;27;20201;-69
2022/02/09 06:38:39;;;;;;;7.97;5.03;;;9.10;1.00;;;;;;5113194;28;20201;-70
2022/02/09 06:41:09;;;;;;;8.47;5.50;;;9.10;1.00;;;;;;5132810;27;20209;-70
2022/02/09 06:43:36;;;;;;;8.03;4.93;;;9.10;1.00;;;;;;5133621;27;20220;-70
2022/02/09 06:46:03;;;;;;;7.33;4.83;;;9.10;1.00;;;;;;5133043;27;20204;-69
2022/02/09 06:48:31;;;;;;;7.23;5.03;;;9.10;1.00;;;;;;5131610;27;20200;-69
2022/02/09 06:51:05;;;;;;;6.20;4.53;;;9.10;99.90;;;;;;5131910;27;20628;-70
2022/02/09 06:53:37;;;;;;;7.53;4.37;;;9.10;99.90;;;;;;5132539;27;20227;-70
2022/02/09 06:56:04;;;;;;;5.37;4.07;;;9.10;99.90;;;;;;5132518;27;20666;-71
2022/02/09 06:58:59;;;;;;;5.50;3.70;;;9.20;51.90;;;;;;5134306;27;20196;-79
2022/02/09 07:01:26;;;;;;;6.47;3.87;;;9.20;1.00;;;;;;5121958;27;20200;-79
2022/02/09 07:03:53;;;;;;;4.93;3.80;;;9.20;1.00;;;;;;5122987;27;20611;-79
2022/02/09 07:06:20;;;;;;;5.50;4.00;;;9.20;1.00;;;;;;5118537;27;20204;-79
2022/02/09 07:08:47;;;;;;;6.93;3.90;;;9.20;99.90;;;;;;5133987;27;20289;-79
2022/02/09 07:11:14;;;;;;;4.50;3.80;;;9.20;1.00;;;;;;5115910;27;20214;-79
2022/02/09 07:13:42;;;;;;;6.37;3.77;;;9.20;1.00;;;;;;5112165;28;20186;-80
2022/02/09 07:16:09;;;;;;;4.53;3.60;;;9.20;1.00;;;;;;5122248;27;20636;-79
2022/02/09 07:18:37;;;;;;;8.37;3.40;;;9.20;1.00;;;;;;5132533;27;20245;-73
2022/02/09 07:21:09;;;;;;;5.70;3.90;;;9.20;1.00;;;;;;5116528;27;20249;-74
2022/02/09 07:23:41;;;;;;;5.33;3.53;;;9.20;1.00;;;;;;5112608;28;20678;-74
2022/02/09 07:26:12;;;;;;;8.13;3.70;;;9.20;99.90;;;;;;5111842;28;20240;-74
2022/02/09 07:28:40;;;;;;;5.40;4.10;;;9.20;1.00;;;;;;5112892;27;20211;-73
2022/02/09 07:31:10;;;;;;;5.87;4.47;;;9.20;1.00;;;;;;5111857;28;20541;-74
2022/02/09 07:33:39;;;;;;;6.10;4.63;;;9.20;1.00;;;;;;5110158;28;20196;-73
2022/02/09 07:36:07;;;;;;;6.50;4.00;;;9.20;1.00;;;;;;5122398;27;20533;-74
2022/02/09 07:38:34;;;;;;;6.20;4.30;;;9.20;1.00;;;;;;5133263;27;20231;-74
2022/02/09 07:41:01;;;;;;;5.60;4.00;;;9.20;1.00;;;;;;5120596;27;20631;-74
2022/02/09 07:43:40;;;;;;;5.13;3.73;;;9.20;55.90;;;;;;5112374;28;20741;-74
2022/02/09 07:49:01;;;;;;;7.27;4.63;;;9.20;1.00;;;;;;5111533;27;20196;-74
2022/02/09 07:51:52;;;;;;;5.37;4.30;;;9.30;1.00;;;;;;5110653;28;20199;-74
2022/02/09 07:54:20;;;;;;;4.87;4.00;;;9.30;6.50;;;;;;5116198;27;20523;-74
2022/02/09 07:56:47;;;;;;;5.20;3.80;;;9.30;45.00;;;;;;5132667;27;20257;-74
2022/02/09 07:59:16;;;;;;;6.87;3.90;;;9.30;1.00;;;;;;5127999;27;20261;-73
2022/02/09 08:01:45;;;;;;;5.53;4.23;;;9.40;1.00;;;;;;5112487;28;20201;-74
2022/02/09 08:04:13;;;;;;;7.57;4.50;;;9.40;1.00;;;;;;5109462;28;20229;-73
2022/02/09 08:06:41;;;;;;;5.33;3.70;;;9.40;1.00;;;;;;5120916;27;20573;-74
2022/02/09 08:09:15;;;;;;;5.47;3.90;;;9.40;1.00;;;;;;5130954;27;20208;-74
2022/02/09 08:11:49;;;;;;;4.80;3.83;;;9.40;1.00;;;;;;5132044;27;20204;-74
2022/02/09 08:28:19;;;;;;;5.20;4.37;;;8.90;99.90;;;;;;5132424;27;20245;-74
2022/02/09 08:31:01;;;;;;;6.93;4.40;;;8.90;99.90;;;;;;5130417;27;20230;-74
2022/02/09 08:33:29;;;;;;;6.47;4.83;;;8.90;99.90;;;;;;5131028;27;20204;-74
2022/02/09 08:35:57;;;;;;;4.30;3.90;;;8.90;99.90;;;;;;5130350;27;20254;-74
2022/02/09 08:38:28;;;;;;;5.10;4.03;;;8.90;99.90;;;;;;5131874;27;20291;-74
2022/02/09 08:40:56;;;;;;;4.07;3.53;;;8.90;99.90;;;;;;5117052;27;20236;-73
2022/02/09 08:43:24;;;;;;;5.33;3.63;;;9.00;99.90;;;;;;5109861;28;20197;-75
2022/02/09 08:45:51;;;;;;;4.53;3.57;;;9.10;99.90;;;;;;5128029;27;20200;-74
2022/02/09 08:48:20;;;;;;;4.00;3.30;;;9.10;99.90;;;;;;5131609;27;20201;-74
2022/02/09 08:50:50;;;;;;;5.07;3.50;;;9.20;11.90;;;;;;5113818;27;20209;-74
2022/02/09 08:53:17;;;;;;;4.07;3.30;;;9.30;1.00;;;;;;5109858;28;20642;-74
2022/02/09 08:55:44;;;;;;;2.80;2.57;;;9.30;1.00;;;;;;5110883;28;20205;-74
2022/02/09 08:58:14;;;;;;;2.67;2.43;;;9.30;1.00;;;;;;5110763;28;20196;-74
2022/02/09 09:00:41;;;;;;;3.70;2.60;;;9.40;1.00;;;;;;5110375;28;20711;-74
2022/02/09 09:03:15;;;;;;;2.50;2.30;;;9.50;99.90;;;;;;5111425;28;20242;-73
2022/02/09 09:05:47;;;;;;;2.40;2.20;;;9.50;99.90;;;;;;5111038;28;20277;-74
2022/02/09 09:08:40;;;;;;;2.40;2.20;;;9.50;99.90;;;;;;5111685;28;20205;-74
2022/02/09 09:31:10;;;;;;;2.60;2.20;;;9.70;99.90;;;;;;5085990;28;20316;-74
2022/02/09 09:58:26;;;;;;;4.10;2.70;;;9.80;1.00;;;;;;5088055;28;20280;-74
2022/02/09 10:03:59;;;;;;;3.87;3.20;;;9.70;99.90;;;;;;5088581;28;20193;-73
2022/02/09 10:34:22;;;;;;;4.57;3.70;;;9.70;99.90;;;;;;5072640;28;20201;-74
2022/02/09 10:36:52;;;;;;;3.97;3.67;;;9.60;1.00;;;;;;5084741;28;20205;-74
2022/02/09 10:39:26;;;;;;;4.50;4.00;;;9.60;1.00;;;;;;5073252;28;20202;-74
2022/02/09 10:41:59;;;;;;;6.33;4.83;;;9.50;90.70;;;;;;5086976;28;20212;-74
2022/02/09 10:44:43;;;;;;;6.70;4.60;;;9.60;99.90;;;;;;5072764;28;20223;-74
2022/02/09 10:47:20;;;;;;;5.37;4.43;;;9.70;99.90;;;;;;5052051;28;20242;-74
2022/02/09 10:50:11;;;;;;;7.13;4.60;;;9.80;99.90;;;;;;5052532;28;20280;-74
2022/02/09 10:52:40;;;;;;;4.93;4.43;;;9.80;1.00;;;;;;5062963;28;20234;-74
2022/02/09 10:55:34;;;;;;;5.83;4.60;;;9.90;1.00;;;;;;5071481;28;20206;-74
2022/02/09 10:58:03;;;;;;;5.17;4.40;;;9.90;99.90;;;;;;5072280;28;20585;-74
2022/02/09 11:00:30;;;;;;;4.50;4.10;;;10.00;99.90;;;;;;5067018;28;20206;-74
2022/02/09 11:02:57;;;;;;;4.67;4.03;;;10.00;1.00;;;;;;5066282;28;20210;-73
2022/02/09 11:05:27;;;;;;;4.10;3.80;;;10.10;1.00;;;;;;5066668;28;20280;-74
2022/02/09 11:07:55;;;;;;;4.10;3.70;;;10.20;1.00;;;;;;5060138;28;20198;-74
2022/02/09 11:10:22;;;;;;;3.83;3.50;;;10.20;1.00;;;;;;5059651;28;20289;-74
2022/02/09 11:12:52;;;;;;;4.20;3.80;;;10.20;1.00;;;;;;5063568;28;20222;-74
2022/02/09 11:15:20;;;;;;;4.13;3.73;;;10.20;99.90;;;;;;5071254;28;20206;-74
2022/02/09 11:17:48;;;;;;;4.50;3.77;;;10.10;99.90;;;;;;5073073;28;20194;-74
2022/02/09 11:20:19;;;;;;;4.00;3.67;;;10.10;24.00;;;;;;5058073;28;20203;-74
2022/02/09 11:22:48;;;;;;;3.93;3.53;;;10.10;99.90;;;;;;5050071;28;20195;-73
2022/02/09 11:25:20;;;;;;;4.00;3.40;;;10.10;33.10;;;;;;5051253;28;20199;-74
2022/02/09 11:27:56;;;;;;;4.17;3.23;;;10.10;1.00;;;;;;5050804;28;20203;-74
2022/02/09 11:30:34;;;;;;;8.93;3.40;;;10.10;1.00;;;;;;5070798;28;20281;-74
2022/02/09 11:33:13;;;;;;;4.20;3.30;;;10.20;1.00;;;;;;5071459;28;20272;-74
2022/02/09 11:36:05;;;;;;;3.27;2.97;;;10.20;1.00;;;;;;5070726;28;20232;-74
2022/02/09 11:38:45;;;;;;;4.77;3.33;;;10.20;1.00;;;;;;5052319;28;20203;-74
2022/02/09 11:41:19;;;;;;;3.50;3.20;;;10.20;1.00;;;;;;5057844;28;20221;-73
2022/02/09 11:43:57;;;;;;;3.50;3.20;;;10.30;1.00;;;;;;5071915;28;20216;-74
2022/02/09 11:46:58;;;;;;;4.50;3.20;;;10.30;1.00;;;;;;5054616;28;20201;-74
2022/02/09 11:52:33;;;;;;;4.10;3.70;;;10.20;1.00;;;;;;5069968;28;20233;-74
2022/02/09 12:10:23;;;;;;;5.03;4.50;;;10.20;1.00;;;;;;5071729;28;20198;-73
2022/02/09 12:13:07;;;;;;;6.17;4.70;;;10.20;1.00;;;;;;5054652;28;20233;-74
2022/02/09 12:18:57;;;;;;;5.37;4.50;;;10.10;99.90;;;;;;5050939;28;20567;-74
2022/02/09 12:21:38;;;;;;;6.07;4.60;;;10.10;99.90;;;;;;5051341;28;20207;-74
2022/02/09 12:24:24;;;;;;;5.30;4.80;;;10.20;1.00;;;;;;5051403;28;20727;-74
2022/02/09 12:26:59;;;;;;;5.13;4.47;;;10.20;1.00;;;;;;5049440;28;20199;-74
2022/02/09 12:29:34;;;;;;;5.27;4.70;;;10.40;1.00;;;;;;5050447;28;20665;-74
2022/02/09 12:32:04;;;;;;;5.13;4.37;;;10.40;1.00;;;;;;5058375;28;20220;-74
2022/02/09 12:34:33;;;;;;;5.30;4.20;;;10.40;1.00;;;;;;5049412;28;20276;-74
2022/02/09 12:37:12;;;;;;;4.83;4.27;;;10.50;99.90;;;;;;5050537;28;20571;-73
2022/02/09 12:39:47;;;;;;;4.97;4.57;;;10.40;99.90;;;;;;5053370;28;20210;-73
2022/02/09 12:42:14;;;;;;;7.83;5.10;;;10.40;99.90;;;;;;5062123;28;20206;-74
2022/02/09 12:44:43;;;;;;;5.93;5.33;;;10.40;99.90;;;;;;5059013;28;20656;-74
2022/02/09 12:47:10;;;;;;;8.50;6.90;;;10.40;1.00;;;;;;5070960;28;20206;-74
2022/02/09 12:49:36;;;;;;;7.60;5.50;;;10.40;1.00;;;;;;5066225;28;20203;-74
2022/02/09 12:52:08;;;;;;;5.90;5.30;;;10.30;79.20;;;;;;5063659;28;20652;-74
2022/02/09 12:54:35;;;;;;;6.20;5.60;;;10.30;99.90;;;;;;5054665;28;20732;-72
2022/02/09 12:57:02;;;;;;;6.17;5.57;;;10.20;1.00;;;;;;5063966;28;20203;-73
2022/02/09 12:59:29;;;;;;;6.00;5.40;;;10.20;1.00;;;;;;5058022;28;20210;-73
2022/02/09 13:01:59;;;;;;;6.50;5.80;;;10.20;1.00;;;;;;5062083;28;20231;-74
2022/02/09 13:04:31;;;;;;;5.87;5.10;;;10.30;99.90;;;;;;5058070;28;20664;-73
2022/02/09 13:06:58;;;;;;;6.63;4.90;;;10.30;99.90;;;;;;5054532;28;20207;-73
2022/02/09 13:09:26;;;;;;;6.33;5.00;;;10.30;99.90;;;;;;5064915;28;20260;-73
2022/02/09 13:11:54;;;;;;;5.77;5.23;;;10.30;99.90;;;;;;5059964;28;20248;-73
2022/02/09 13:14:29;;;;;;;8.17;5.37;;;10.20;1.00;;;;;;5065332;28;20249;-73
2022/02/09 13:17:25;;;;;;;5.23;4.73;;;10.10;99.90;;;;;;5057164;28;20208;-73
2022/02/09 14:10:54;;;;;;;8.93;7.13;;;10.00;1.00;;;;;;5030351;28;20242;-72
2022/02/09 14:13:30;;;;;;;7.37;6.33;;;10.00;1.00;;;;;;5063005;28;20416;-73
2022/02/09 14:52:08;;;;;;;6.67;4.83;;;10.30;1.00;;;;;;5060476;28;20222;-73
2022/02/09 14:54:42;;;;;;;4.93;4.43;;;10.30;1.00;;;;;;5062819;28;20308;-73
2022/02/09 14:57:13;;;;;;;5.00;4.50;;;10.30;1.00;;;;;;5060585;28;20681;-73
2022/02/09 15:00:00;;;;;;;5.17;4.67;;;10.30;1.00;;;;;;5056119;28;20290;-73
2022/02/09 15:02:39;;;;;;;4.13;3.77;;;10.30;1.00;;;;;;5060330;28;20211;-73
2022/02/09 15:08:06;;;;;;;4.17;3.37;;;10.30;75.00;;;;;;5051785;28;20199;-73
2022/02/09 15:10:39;;;;;;;3.60;3.10;;;10.30;1.00;;;;;;5063019;28;20202;-73
2022/02/09 15:13:24;;;;;;;3.20;2.77;;;10.30;1.00;;;;;;5062728;28;20718;-73
2022/02/09 15:16:01;;;;;;;5.17;3.13;;;10.30;1.00;;;;;;5060567;28;20680;-73
2022/02/09 15:18:51;;;;;;;3.07;2.87;;;10.30;15.20;;;;;;5061425;28;20750;-73
2022/02/09 15:21:26;;;;;;;2.80;2.60;;;10.20;20.70;;;;;;5052597;28;20611;-73
2022/02/09 15:23:56;;;;;;;3.97;3.10;;;10.20;1.00;;;;;;5060219;28;20967;-73
2022/02/09 15:26:23;;;;;;;2.70;2.50;;;10.20;1.00;;;;;;5053214;28;20300;-73
2022/02/09 15:28:52;;;;;;;4.63;3.43;;;10.10;99.90;;;;;;5059324;28;20260;-72
2022/02/09 15:31:25;;;;;;;3.70;3.13;;;10.10;99.90;;;;;;5068947;28;20211;-72
2022/02/09 15:34:00;;;;;;;3.10;2.90;;;10.10;99.90;;;;;;5068774;28;20242;-73
2022/02/09 15:36:46;;;;;;;3.50;3.20;;;10.10;99.90;;;;;;5057781;28;20289;-73
2022/02/09 15:39:14;;;;;;;4.60;4.13;;;10.10;99.90;;;;;;5058740;28;20215;-73
2022/02/09 15:41:57;;;;;;;5.03;3.83;;;10.10;99.90;;;;;;5065350;28;20363;-73
2022/02/09 16:06:51;;;;;;;5.30;4.10;;;9.90;1.00;;;;;;5056043;28;20495;-73
2022/02/09 16:09:24;;;;;;;4.00;3.60;;;9.80;1.00;;;;;;5060046;28;20242;-73
2022/02/09 16:23:04;;;;;;;5.33;4.83;;;9.70;99.90;;;;;;5112804;27;1462304;-72
2022/02/09 16:25:50;;;;;;;5.93;4.70;;;9.70;99.90;;;;;;5126657;27;20261;-76
2022/02/09 16:37:12;;;;;;;5.03;4.53;;;9.60;99.90;;;;;;5124293;27;20200;-72
2022/02/09 16:45:07;;;;;;;7.20;4.83;;;9.50;1.00;;;;;;5121800;27;20196;-72
2022/02/09 16:47:55;;;;;;;5.13;4.63;;;9.50;1.00;;;;;;5126111;27;20223;-71
2022/02/09 16:50:28;;;;;;;5.67;5.07;;;9.50;1.00;;;;;;5126893;27;20686;-71
2022/02/09 16:53:00;;;;;;;7.17;5.53;;;9.50;1.00;;;;;;5125240;27;20196;-72
2022/02/09 17:20:15;;;;;;;11.40;9.07;;;9.40;1.00;;;;;;5126333;27;20199;-68
2022/02/09 17:22:42;;;;;;;12.67;9.20;;;9.40;1.00;;;;;;5125935;27;20304;-69
2022/02/09 17:25:09;;;;;;;12.90;9.70;;;9.40;1.00;;;;;;5128794;27;20204;-68
2022/02/09 17:27:38;;;;;;;12.57;9.40;;;9.40;1.00;;;;;;5121793;27;20204;-68
2022/02/09 17:32:52;;;;;;;13.47;9.67;;;9.40;1.00;;;;;;5114501;27;20218;-72
2022/02/09 17:35:23;;;;;;;11.23;8.20;;;9.40;1.00;;;;;;5103061;28;20452;-68
2022/02/09 17:38:16;;;;;;;10.57;8.30;;;9.40;1.00;;;;;;5106856;27;20609;-69
2022/02/09 17:57:09;;;;;;;11.87;8.30;;;9.40;1.00;;;;;;5106736;27;20271;-69
2022/02/09 17:59:55;;;;;;;12.07;9.23;;;9.40;1.00;;;;;;5110075;27;20204;-69
2022/02/09 18:02:22;;;;;;;11.33;8.53;;;9.30;1.00;;;;;;5113429;27;20224;-69
2022/02/09 18:04:49;;;;;;;14.20;8.73;;;9.30;1.00;;;;;;5105074;27;20215;-69
2022/02/09 18:07:20;;;;;;;11.07;8.27;;;9.30;1.00;;;;;;5111983;27;20205;-69
2022/02/09 18:09:50;;;;;;;10.73;8.73;;;9.40;1.00;;;;;;5106838;28;20267;-69
2022/02/09 18:12:25;;;;;;;10.70;7.77;;;9.40;1.00;;;;;;5105087;27;20201;-69
2022/02/09 18:15:13;;;;;;;10.87;8.30;;;9.40;1.00;;;;;;5097123;27;20201;-69
2022/02/09 18:26:34;;;;;;;12.17;9.07;;;9.40;99.90;;;;;;5101484;27;20204;-69
2022/02/09 18:29:08;;;;;;;12.07;9.30;;;9.40;99.90;;;;;;5106290;27;20205;-69
2022/02/09 18:31:37;;;;;;;10.90;8.50;;;9.40;1.00;;;;;;5105708;27;20207;-69
2022/02/09 18:45:20;;;;;;;13.77;8.70;;;9.30;1.00;;;;;;5096323;28;20618;-69
2022/02/09 18:48:02;;;;;;;11.87;8.80;;;9.30;1.00;;;;;;5112825;27;20232;-69
2022/02/09 19:04:34;;;;;;;13.73;9.60;;;9.30;1.00;;;;;;5101032;27;20201;-69
2022/02/09 19:18:09;;;;;;;15.07;10.70;;;9.30;1.00;;;;;;5093790;27;20205;-70
2022/02/09 19:20:55;;;;;;;15.50;10.23;;;9.30;99.90;;;;;;5104317;28;20562;-69
2022/02/09 19:29:37;;;;;;;16.70;11.53;;;9.30;1.00;;;;;;5089649;28;20189;-69
2022/02/09 19:32:23;;;;;;;17.63;11.50;;;9.30;1.00;;;;;;5102735;27;20200;-69
2022/02/09 19:40:50;;;;;;;18.63;11.90;;;9.30;1.00;;;;;;5104150;27;20676;-69
2022/02/09 19:46:19;;;;;;;19.17;12.30;;;9.30;1.00;;;;;;5106509;28;20345;-69
2022/02/09 19:48:54;;;;;;;19.27;11.57;;;9.30;1.00;;;;;;5104507;27;20210;-69
2022/02/09 19:51:36;;;;;;;19.53;12.53;;;9.30;1.00;;;;;;5102557;28;20240;-69
2022/02/09 19:54:11;;;;;;;18.37;11.67;;;9.30;1.00;;;;;;5100426;27;20215;-69
2022/02/09 19:56:41;;;;;;;18.60;11.87;;;9.30;1.00;;;;;;5103393;27;20288;-69
2022/02/09 19:59:15;;;;;;;19.77;11.70;;;9.30;1.00;;;;;;5109607;27;20235;-69
2022/02/09 20:01:43;;;;;;;17.93;11.13;;;9.30;1.00;;;;;;5106628;27;20221;-69
2022/02/09 20:04:11;;;;;;;17.17;11.13;;;9.30;1.00;;;;;;5113802;27;20258;-70
2022/02/09 20:06:38;;;;;;;18.20;11.07;;;9.30;1.00;;;;;;5100639;27;20197;-69
2022/02/09 20:09:07;;;;;;;17.53;10.73;;;9.30;1.00;;;;;;5105170;28;20209;-69
2022/02/09 20:11:35;;;;;;;16.50;10.63;;;9.30;1.00;;;;;;5110792;27;20244;-69
2022/02/09 20:14:02;;;;;;;16.60;10.93;;;9.30;1.00;;;;;;5103913;28;20261;-69
2022/02/09 20:16:30;;;;;;;17.83;10.53;;;9.30;1.00;;;;;;5105589;27;20204;-69
2022/02/09 20:18:58;;;;;;;15.83;10.20;;;9.30;1.00;;;;;;5111256;28;20690;-69
2022/02/09 20:21:27;;;;;;;16.47;10.53;;;9.30;1.00;;;;;;5106850;28;20212;-69
2022/02/09 20:23:54;;;;;;;14.37;9.33;;;9.20;1.00;;;;;;5100884;28;20762;-69
2022/02/09 20:26:25;;;;;;;17.53;10.17;;;9.20;1.00;;;;;;5112579;28;20209;-69
2022/02/09 20:28:57;;;;;;;15.97;10.27;;;9.20;1.00;;;;;;5110122;28;20205;-69
2022/02/09 20:31:29;;;;;;;15.03;9.53;;;9.20;1.00;;;;;;5110554;28;20300;-69
2022/02/09 20:34:00;;;;;;;19.50;11.97;;;9.20;1.00;;;;;;5105433;28;20235;-71
2022/02/09 20:36:29;;;;;;;17.30;10.67;;;9.20;1.00;;;;;;5108418;28;20572;-72
2022/02/09 20:38:58;;;;;;;17.07;10.07;;;9.20;1.00;;;;;;5098674;28;20216;-72
2022/02/09 20:41:27;;;;;;;16.60;10.43;;;9.20;1.00;;;;;;5104256;28;20258;-72
2022/02/09 20:44:03;;;;;;;16.27;10.30;;;9.20;1.00;;;;;;5103657;28;20249;-71
2022/02/09 20:46:32;;;;;;;20.40;11.57;;;9.20;1.00;;;;;;5096487;28;20204;-72
2022/02/09 20:49:00;;;;;;;18.77;11.50;;;9.20;1.00;;;;;;5108285;28;20301;-71
2022/02/09 20:51:28;;;;;;;19.23;12.20;;;9.20;1.00;;;;;;5111840;28;20254;-72
2022/02/09 20:53:55;;;;;;;18.33;11.73;;;9.20;1.00;;;;;;5111769;28;20220;-72
2022/02/09 20:56:23;;;;;;;20.50;11.97;;;9.20;16.20;;;;;;5108277;28;20254;-72
2022/02/09 20:58:58;;;;;;;20.17;12.90;;;9.20;99.90;;;;;;5115792;28;20254;-71
2022/02/09 21:01:31;;;;;;;19.47;12.50;;;9.20;99.90;;;;;;5106408;28;20227;-71
2022/02/09 21:04:03;;;;;;;19.40;11.97;;;9.20;99.90;;;;;;5107088;28;20226;-72
2022/02/09 21:06:38;;;;;;;21.17;14.17;;;9.20;99.90;;;;;;5110904;28;20204;-72
2022/02/09 21:09:17;;;;;;;24.37;12.87;;;9.20;99.90;;;;;;5105528;27;20734;-72
2022/02/09 21:11:54;;;;;;;21.30;12.57;;;9.20;99.90;;;;;;5121384;27;20658;-72
2022/02/09 21:14:44;;;;;;;19.83;12.33;;;9.20;99.90;;;;;;5116633;27;20709;-72
2022/02/09 21:17:21;;;;;;;19.60;12.50;;;9.20;56.80;;;;;;5111015;28;20560;-71
2022/02/09 21:22:46;;;;;;;22.30;12.83;;;9.20;1.00;;;;;;5099900;28;20216;-72
2022/02/09 21:25:50;;;;;;;18.40;12.33;;;9.20;1.00;;;;;;5121345;27;20212;-72
2022/02/09 21:45:19;;;;;;;18.93;11.63;;;9.10;99.90;;;;;;5112656;28;20200;-72
2022/02/09 21:56:15;;;;;;;20.77;12.60;;;9.10;1.00;;;;;;5098744;28;20189;-72
2022/02/09 21:58:47;;;;;;;20.90;12.13;;;9.10;1.00;;;;;;5112744;28;20200;-72
2022/02/09 22:20:36;;;;;;;19.63;11.90;;;9.10;99.90;;;;;;5113072;28;20200;-72
2022/02/09 22:28:30;;;;;;;19.77;12.03;;;9.10;99.90;;;;;;5112584;28;20189;-72
2022/02/09 22:47:56;;;;;;;21.53;12.40;;;9.10;99.90;;;;;;5112206;28;20249;-72
2022/02/09 22:50:42;;;;;;;21.73;13.13;;;9.10;99.90;;;;;;5112915;28;20205;-72
2022/02/09 22:55:55;;;;;;;22.70;13.17;;;9.10;99.90;;;;;;5112144;28;20556;-72
2022/02/09 22:58:22;;;;;;;21.03;12.43;;;9.10;99.90;;;;;;5111973;28;20325;-72
2022/02/09 23:01:00;;;;;;;21.53;12.70;;;9.10;99.90;;;;;;5112504;28;20577;-72
2022/02/09 23:03:36;;;;;;;20.83;11.80;;;9.10;99.90;;;;;;5112384;28;20251;-72
2022/02/09 23:11:48;;;;;;;20.67;12.50;;;9.00;1.00;;;;;;5111495;28;20196;-72
2022/02/09 23:14:43;;;;;;;23.53;13.93;;;8.90;1.00;;;;;;5112452;28;20620;-72
2022/02/09 23:53:59;;;;;;;18.23;10.70;;;8.70;99.90;;;;;;5124139;27;20338;-72
